createdAt,value
2023-03-11T00:16:58.814Z,218.24
2023-03-11T00:17:58.791Z,218.45
2023-03-11T00:18:58.762Z,217.43
2023-03-11T00:19:58.732Z,217.52
2023-03-11T00:20:58.702Z,216.21
2023-03-11T00:21:58.712Z,215.60
2023-03-11T00:22:58.653Z,215.00
2023-03-11T00:23:58.636Z,212.87
2023-03-11T00:24:58.608Z,213.01
2023-03-11T00:25:58.692Z,214.27
2023-03-11T00:26:58.579Z,211.49
2023-03-11T00:27:58.542Z,210.33
2023-03-11T00:28:58.524Z,209.21
2023-03-11T00:29:58.489Z,208.78
2023-03-11T00:31:58.477Z,206.56
2023-03-11T00:32:58.429Z,206.05
2023-03-11T00:33:58.417Z,203.73
2023-03-11T00:34:58.382Z,204.74
2023-03-11T00:35:58.387Z,202.01
2023-03-11T00:36:58.354Z,201.42
2023-03-11T00:37:58.321Z,199.78
2023-03-11T00:38:58.333Z,196.28
2023-03-11T00:39:58.288Z,194.80
2023-03-11T00:40:58.268Z,193.67
2023-03-11T00:41:58.249Z,192.82
2023-03-11T00:42:58.222Z,193.23
2023-03-11T00:45:58.180Z,192.98
2023-03-11T00:46:58.129Z,192.47
2023-03-11T00:47:58.113Z,192.58
2023-03-11T00:48:58.072Z,191.09
2023-03-11T00:49:58.058Z,191.14
2023-03-11T00:50:58.029Z,189.21
2023-03-11T00:51:58.011Z,188.84
2023-03-11T00:52:57.982Z,187.96
2023-03-11T00:53:57.967Z,187.41
2023-03-11T00:54:57.933Z,186.65
2023-03-11T00:55:57.916Z,186.80
2023-03-11T00:56:57.905Z,187.11
2023-03-11T00:57:57.871Z,187.66
2023-03-11T00:58:57.838Z,187.73
2023-03-11T00:59:57.808Z,186.25
2023-03-11T01:00:57.852Z,185.44
2023-03-11T01:01:57.775Z,185.45
2023-03-11T01:02:57.743Z,187.42
2023-03-11T01:03:57.721Z,187.17
2023-03-11T01:04:57.698Z,186.61
2023-03-11T01:05:57.661Z,186.70
2023-03-11T01:06:57.663Z,186.66
2023-03-11T01:07:57.617Z,185.71
2023-03-11T01:08:57.595Z,186.83
2023-03-11T01:09:57.581Z,186.23
2023-03-11T01:10:57.551Z,185.68
2023-03-11T01:11:57.499Z,186.01
2023-03-11T01:12:57.477Z,186.38
2023-03-11T01:13:57.453Z,184.08
2023-03-11T01:14:57.413Z,183.17
2023-03-11T01:15:57.427Z,181.41
2023-03-11T01:16:57.386Z,181.52
2023-03-11T01:17:57.362Z,180.05
2023-03-11T01:18:57.337Z,182.04
2023-03-11T01:19:57.330Z,183.72
2023-03-11T01:20:57.292Z,183.27
2023-03-11T01:21:57.261Z,180.53
2023-03-11T01:22:57.255Z,178.39
2023-03-11T01:23:57.241Z,178.98
2023-03-11T01:24:57.229Z,181.06
2023-03-11T01:25:57.196Z,183.14
2023-03-11T01:26:57.239Z,182.81
2023-03-11T01:27:57.138Z,181.58
2023-03-11T01:28:57.109Z,179.86
2023-03-11T01:29:57.098Z,181.49
2023-03-11T01:30:57.096Z,183.26
2023-03-11T01:31:57.050Z,180.60
2023-03-11T01:32:57.041Z,181.14
2023-03-11T01:33:57.008Z,179.68
2023-03-11T01:34:56.988Z,181.69
2023-03-11T01:35:57.058Z,183.89
2023-03-11T01:36:56.954Z,184.68
2023-03-11T01:37:56.960Z,187.77
2023-03-11T01:38:56.929Z,185.54
2023-03-11T01:39:56.903Z,184.72
2023-03-11T01:40:56.883Z,184.72
2023-03-11T01:41:56.855Z,186.01
2023-03-11T01:42:56.847Z,184.70
2023-03-11T01:43:56.837Z,184.76
2023-03-11T01:44:56.792Z,183.88
2023-03-11T01:45:56.779Z,185.30
2023-03-11T01:46:56.772Z,182.40
2023-03-11T01:47:56.749Z,184.78
2023-03-11T01:48:56.716Z,185.84
2023-03-11T01:49:56.683Z,186.00
2023-03-11T01:50:56.689Z,184.77
2023-03-11T01:51:56.673Z,183.15
2023-03-11T01:52:56.650Z,183.19
2023-03-11T01:53:56.629Z,182.81
2023-03-11T01:54:56.597Z,182.22
2023-03-11T01:55:56.577Z,182.30
2023-03-11T01:56:56.585Z,182.40
2023-03-11T01:57:56.558Z,181.82
2023-03-11T01:58:56.527Z,179.70
2023-03-11T01:59:56.505Z,178.32
2023-03-11T02:00:56.494Z,178.87
2023-03-11T02:01:56.478Z,180.34
2023-03-11T02:02:56.495Z,182.49
2023-03-11T02:03:56.469Z,181.84
2023-03-11T02:04:56.399Z,180.88
2023-03-11T02:05:56.387Z,171.49
2023-03-11T02:06:56.365Z,163.91
2023-03-11T02:07:56.382Z,171.94
2023-03-11T02:08:56.308Z,176.06
2023-03-11T02:09:56.282Z,178.51
2023-03-11T02:10:56.277Z,178.66
2023-03-11T02:11:56.243Z,177.54
2023-03-11T02:12:56.228Z,178.24
2023-03-11T02:13:56.191Z,179.44
2023-03-11T02:14:56.170Z,181.37
2023-03-11T02:15:56.193Z,179.44
2023-03-11T02:16:56.127Z,179.46
2023-03-11T02:17:56.123Z,179.02
2023-03-11T02:18:56.094Z,176.29
2023-03-11T02:19:56.064Z,179.37
2023-03-11T02:20:56.036Z,183.05
2023-03-11T02:21:56.023Z,182.47
2023-03-11T02:22:56.004Z,180.63
2023-03-11T02:23:55.954Z,177.45
2023-03-11T02:24:55.947Z,178.90
2023-03-11T02:25:55.911Z,181.27
2023-03-11T02:26:55.891Z,179.47
2023-03-11T02:27:55.914Z,179.63
2023-03-11T02:28:55.826Z,172.88
2023-03-11T02:29:55.799Z,176.71
2023-03-11T02:30:55.768Z,180.29
2023-03-11T02:31:55.784Z,178.35
2023-03-11T02:32:55.734Z,178.50
2023-03-11T02:33:55.719Z,180.78
2023-03-11T02:34:55.689Z,181.46
2023-03-11T02:35:55.723Z,181.74
2023-03-11T02:36:55.647Z,178.81
2023-03-11T02:37:55.629Z,178.36
2023-03-11T02:38:55.603Z,182.88
2023-03-11T02:39:55.567Z,182.46
2023-03-11T02:40:55.573Z,181.58
2023-03-11T02:41:55.507Z,182.42
2023-03-11T02:42:55.511Z,182.65
2023-03-11T02:43:55.478Z,182.02
2023-03-11T02:44:55.464Z,179.65
2023-03-11T02:45:55.432Z,174.63
2023-03-11T02:46:55.489Z,178.47
2023-03-11T02:47:55.401Z,177.69
2023-03-11T02:48:55.390Z,176.13
2023-03-11T02:49:55.347Z,176.41
2023-03-11T02:50:55.364Z,168.66
2023-03-11T02:51:55.336Z,170.11
2023-03-11T02:52:55.297Z,170.72
2023-03-11T02:53:55.406Z,167.49
2023-03-11T02:54:55.245Z,171.47
2023-03-11T02:55:55.242Z,174.66
2023-03-11T02:56:55.215Z,166.42
2023-03-11T02:57:55.208Z,168.91
2023-03-11T02:58:55.189Z,173.55
2023-03-11T02:59:55.154Z,176.81
2023-03-11T03:00:55.211Z,177.84
2023-03-11T03:01:55.129Z,179.91
2023-03-11T03:02:55.111Z,177.88
2023-03-11T03:03:55.103Z,181.55
2023-03-11T03:04:55.107Z,181.24
2023-03-11T03:05:55.097Z,181.87
2023-03-11T03:06:55.046Z,180.56
2023-03-11T03:07:55.010Z,182.79
2023-03-11T03:08:54.997Z,178.83
2023-03-11T03:09:55.008Z,178.60
2023-03-11T03:10:54.978Z,180.76
2023-03-11T03:11:54.972Z,182.05
2023-03-11T03:12:54.933Z,181.72
2023-03-11T03:13:54.921Z,184.08
2023-03-11T03:14:54.923Z,179.37
2023-03-11T03:15:54.869Z,180.88
2023-03-11T03:16:55.044Z,180.21
2023-03-11T03:17:54.830Z,181.51
2023-03-11T03:18:54.811Z,182.43
2023-03-11T03:19:54.812Z,183.40
2023-03-11T03:20:54.795Z,183.74
2023-03-11T03:21:54.749Z,181.57
2023-03-11T03:22:54.714Z,182.01
2023-03-11T03:23:54.703Z,179.88
2023-03-11T03:24:54.669Z,178.32
2023-03-11T03:25:54.636Z,178.64
2023-03-11T03:26:54.631Z,180.92
2023-03-11T03:27:54.607Z,178.68
2023-03-11T03:28:54.625Z,179.65
2023-03-11T03:29:54.556Z,182.08
2023-03-11T03:30:54.519Z,182.12
2023-03-11T03:31:54.500Z,180.90
2023-03-11T03:32:54.538Z,179.39
2023-03-11T03:33:54.450Z,179.89
2023-03-11T03:34:54.446Z,181.26
2023-03-11T03:35:54.424Z,174.96
2023-03-11T03:36:54.381Z,176.15
2023-03-11T03:37:54.386Z,176.68
2023-03-11T03:38:54.339Z,179.89
2023-03-11T03:39:54.325Z,181.18
2023-03-11T03:40:54.286Z,183.91
2023-03-11T03:41:54.266Z,180.54
2023-03-11T03:42:54.241Z,178.81
2023-03-11T03:43:54.238Z,179.98
2023-03-11T03:44:54.215Z,180.89
2023-03-11T03:45:54.183Z,181.00
2023-03-11T03:46:54.158Z,181.02
2023-03-11T03:47:54.120Z,178.90
2023-03-11T03:48:54.116Z,177.20
2023-03-11T03:49:54.113Z,177.41
2023-03-11T03:50:54.184Z,179.53
2023-03-11T03:51:54.100Z,180.99
2023-03-11T03:52:54.030Z,183.27
2023-03-11T03:53:54.087Z,182.49
2023-03-11T03:54:53.951Z,179.75
2023-03-11T03:55:53.917Z,175.34
2023-03-11T03:56:53.901Z,176.19
2023-03-11T03:57:53.872Z,171.22
2023-03-11T03:58:53.856Z,174.70
2023-03-11T03:59:53.851Z,179.22
2023-03-11T04:00:53.790Z,178.63
2023-03-11T04:01:53.780Z,181.50
2023-03-11T04:02:53.745Z,181.37
2023-03-11T04:03:53.712Z,180.72
2023-03-11T04:04:53.688Z,182.00
2023-03-11T04:05:53.662Z,181.42
2023-03-11T04:06:53.641Z,183.22
2023-03-11T04:07:53.607Z,183.08
2023-03-11T04:08:53.598Z,183.11
2023-03-11T04:09:53.621Z,183.20
2023-03-11T04:10:53.524Z,181.88
2023-03-11T04:11:53.533Z,180.85
2023-03-11T04:12:53.488Z,182.19
2023-03-11T04:13:53.465Z,181.60
2023-03-11T04:14:53.476Z,181.48
2023-03-11T04:15:53.461Z,184.72
2023-03-11T04:16:53.447Z,186.19
2023-03-11T04:17:53.369Z,185.33
2023-03-11T04:18:53.345Z,185.38
2023-03-11T04:19:53.344Z,183.79
2023-03-11T04:20:53.300Z,182.38
2023-03-11T04:21:53.280Z,181.86
2023-03-11T04:22:53.281Z,179.93
2023-03-11T04:23:53.247Z,184.35
2023-03-11T04:24:53.213Z,183.59
2023-03-11T04:25:53.176Z,184.86
2023-03-11T04:26:53.177Z,185.83
2023-03-11T04:27:53.132Z,187.31
2023-03-11T04:28:53.134Z,187.44
2023-03-11T04:29:53.119Z,188.26
2023-03-11T04:30:53.166Z,190.14
2023-03-11T04:31:53.057Z,189.32
2023-03-11T04:32:53.031Z,190.93
2023-03-11T04:33:52.999Z,187.53
2023-03-11T04:34:53.041Z,186.08
2023-03-11T04:35:52.982Z,192.29
2023-03-11T04:36:52.941Z,191.40
2023-03-11T04:37:52.911Z,191.22
2023-03-11T04:38:52.886Z,191.36
2023-03-11T04:39:52.872Z,191.50
2023-03-11T04:40:52.849Z,188.59
2023-03-11T04:41:52.821Z,190.89
2023-03-11T04:42:52.794Z,192.21
2023-03-11T04:43:52.773Z,190.97
2023-03-11T04:44:52.778Z,193.43
2023-03-11T04:45:52.749Z,192.93
2023-03-11T04:46:52.705Z,192.46
2023-03-11T04:47:52.682Z,190.97
2023-03-11T04:48:52.656Z,192.43
2023-03-11T04:49:52.648Z,194.12
2023-03-11T04:50:52.628Z,195.83
2023-03-11T04:51:52.598Z,195.45
2023-03-11T04:52:52.582Z,193.72
2023-03-11T04:53:52.588Z,193.90
2023-03-11T04:54:52.554Z,196.38
2023-03-11T04:55:52.523Z,193.39
2023-03-11T04:56:52.527Z,192.53
2023-03-11T04:57:52.562Z,191.19
2023-03-11T04:58:52.489Z,187.73
2023-03-11T04:59:52.466Z,189.25
2023-03-11T05:00:52.466Z,190.32
2023-03-11T05:01:52.467Z,192.03
2023-03-11T05:02:52.485Z,190.36
2023-03-11T05:04:52.495Z,188.10
2023-03-11T05:05:52.471Z,187.49
2023-03-11T05:07:52.399Z,193.53
2023-03-11T09:42:45.953Z,130.43
2023-03-11T10:07:45.148Z,138.37
2023-03-11T10:08:45.108Z,141.90
2023-03-11T10:09:45.082Z,139.74
2023-03-11T10:10:45.039Z,142.19
2023-03-11T10:11:45.016Z,141.09
2023-03-11T10:12:44.984Z,141.23
2023-03-11T10:13:44.942Z,143.25
2023-03-11T10:14:44.915Z,141.94
2023-03-11T10:15:44.891Z,136.43
2023-03-11T10:16:44.862Z,145.23
2023-03-11T10:17:44.803Z,148.53
2023-03-11T10:18:44.769Z,152.88
2023-03-11T10:19:44.738Z,144.89
2023-03-11T10:20:44.718Z,147.06
2023-03-11T10:21:44.666Z,147.12
2023-03-11T10:22:44.639Z,144.63
2023-03-11T10:23:44.637Z,142.26
2023-03-11T10:24:44.579Z,135.75
2023-03-11T10:25:44.544Z,137.49
2023-03-11T10:26:44.537Z,137.82
2023-03-11T10:27:44.485Z,131.61
2023-03-11T10:28:44.444Z,138.15
2023-03-11T10:29:44.457Z,140.33
2023-03-11T10:30:44.385Z,122.36
2023-03-11T10:31:44.370Z,125.91
2023-03-11T10:32:44.406Z,131.60
2023-03-11T10:33:46.610Z,130.70
2023-03-11T10:34:44.260Z,116.19
2023-03-11T10:35:44.238Z,126.93
2023-03-11T10:36:44.180Z,124.57
2023-03-11T10:37:49.740Z,112.54
2023-03-11T10:39:44.085Z,123.81
2023-03-11T10:40:44.049Z,130.22
2023-03-11T10:41:44.020Z,130.94
2023-03-11T10:42:43.988Z,130.45
2023-03-11T10:43:43.954Z,120.75
2023-03-11T10:44:43.925Z,136.96
2023-03-11T10:45:43.915Z,138.45
2023-03-11T10:46:43.856Z,142.82
2023-03-11T10:47:43.797Z,138.65
2023-03-11T10:48:43.754Z,129.53
2023-03-11T10:49:43.719Z,132.76
2023-03-11T10:50:43.680Z,141.90
2023-03-11T10:51:43.624Z,141.03
2023-03-11T10:52:43.607Z,140.62
2023-03-11T10:53:43.549Z,142.40
2023-03-11T10:54:43.518Z,142.37
2023-03-11T10:55:43.464Z,128.92
2023-03-11T10:56:43.442Z,130.50
2023-03-11T10:57:43.401Z,138.60
2023-03-11T10:58:43.408Z,134.83
2023-03-11T10:59:43.301Z,124.05
2023-03-11T11:00:43.281Z,126.18
2023-03-11T11:01:43.238Z,121.13
2023-03-11T11:02:43.870Z,115.61
2023-03-11T11:03:43.137Z,117.24
2023-03-11T11:04:43.109Z,116.06
2023-03-11T11:05:43.063Z,115.96
2023-03-11T11:06:43.034Z,111.63
2023-03-11T11:07:42.963Z,106.86
2023-03-11T11:08:42.930Z,97.22
2023-03-11T11:09:42.877Z,104.07
2023-03-11T11:10:42.843Z,113.68
2023-03-11T11:11:42.793Z,99.27
2023-03-11T11:12:42.749Z,113.52
2023-03-11T11:13:42.705Z,116.18
2023-03-11T11:14:42.681Z,118.59
2023-03-11T11:15:42.631Z,121.09
2023-03-11T11:16:42.651Z,120.52
2023-03-11T11:17:42.556Z,120.73
2023-03-11T11:18:42.495Z,123.26
2023-03-11T11:19:42.467Z,121.72
2023-03-11T11:20:42.417Z,111.22
2023-03-11T11:21:42.357Z,114.81
2023-03-11T11:22:42.321Z,117.80
2023-03-11T11:23:42.303Z,113.40
2023-03-11T11:24:42.250Z,118.19
2023-03-11T11:25:42.200Z,113.17
2023-03-11T11:26:42.145Z,117.52
2023-03-11T11:27:42.096Z,123.00
2023-03-11T11:28:42.052Z,127.64
2023-03-11T11:29:42.017Z,124.76
2023-03-11T11:30:41.986Z,125.06
2023-03-11T11:31:41.923Z,125.79
2023-03-11T11:32:41.900Z,126.26
2023-03-11T11:33:41.849Z,119.66
2023-03-11T11:34:41.803Z,123.58
2023-03-11T11:35:41.778Z,123.90
2023-03-11T11:36:41.810Z,122.50
2023-03-11T11:37:41.673Z,128.04
2023-03-11T11:38:41.618Z,128.00
2023-03-11T11:39:41.568Z,130.38
2023-03-11T11:40:41.550Z,131.28
2023-03-11T11:41:41.508Z,122.84
2023-03-11T11:42:41.489Z,115.11
2023-03-11T11:43:41.414Z,119.47
2023-03-11T11:44:41.347Z,115.18
2023-03-11T11:45:41.313Z,103.27
2023-03-11T11:46:41.271Z,100.75
2023-03-11T11:47:41.217Z,111.85
2023-03-11T11:48:41.205Z,115.93
2023-03-11T11:49:41.124Z,117.20
2023-03-11T11:50:41.094Z,121.49
2023-03-11T11:51:41.052Z,125.69
2023-03-11T11:52:40.989Z,121.82
2023-03-11T11:53:40.955Z,123.86
2023-03-11T11:54:40.890Z,124.17
2023-03-11T11:55:40.832Z,120.36
2023-03-11T11:56:40.819Z,116.45
2023-03-11T11:57:40.756Z,118.60
2023-03-11T11:58:40.692Z,107.31
2023-03-11T11:59:40.645Z,110.42
2023-03-11T12:00:40.624Z,109.26
2023-03-11T12:01:40.588Z,105.89
2023-03-11T12:02:40.528Z,101.96
2023-03-11T12:03:40.545Z,106.67
2023-03-11T12:04:40.454Z,105.40
2023-03-11T12:05:40.451Z,106.41
2023-03-11T12:06:40.365Z,100.07
2023-03-11T12:07:40.311Z,105.15
2023-03-11T12:08:40.286Z,108.08
2023-03-11T12:09:40.231Z,110.12
2023-03-11T12:10:40.197Z,110.18
2023-03-11T12:11:41.924Z,113.49
2023-03-11T12:12:40.109Z,108.32
2023-03-11T12:13:40.064Z,100.42
2023-03-11T12:14:40.026Z,98.76
2023-03-11T12:15:40.023Z,104.82
2023-03-11T12:16:39.940Z,105.30
2023-03-11T12:17:39.902Z,100.27
2023-03-11T12:18:39.875Z,94.82
2023-03-11T12:19:39.830Z,99.86
2023-03-11T12:20:39.770Z,104.98
2023-03-11T12:21:39.737Z,111.64
2023-03-11T12:22:39.683Z,105.67
2023-03-11T12:23:39.642Z,107.26
2023-03-11T12:24:39.607Z,106.28
2023-03-11T12:25:39.587Z,109.47
2023-03-11T12:26:39.535Z,111.95
2023-03-11T12:27:39.475Z,107.95
2023-03-11T12:28:39.448Z,107.39
2023-03-11T12:29:39.404Z,101.85
2023-03-11T12:30:39.376Z,105.01
2023-03-11T12:31:39.509Z,107.27
2023-03-11T12:32:39.310Z,102.28
2023-03-11T12:33:39.241Z,96.34
2023-03-11T12:34:39.205Z,102.73
2023-03-11T12:35:39.188Z,104.49
2023-03-11T12:36:39.193Z,105.21
2023-03-11T12:37:39.064Z,102.60
2023-03-11T12:38:39.027Z,105.96
2023-03-11T12:39:38.985Z,103.82
2023-03-11T12:40:38.930Z,107.34
2023-03-11T12:41:38.938Z,106.34
2023-03-11T12:42:38.858Z,107.57
2023-03-11T12:43:38.795Z,114.55
2023-03-11T12:44:38.767Z,116.55
2023-03-11T12:45:38.700Z,108.94
2023-03-11T12:46:38.712Z,118.67
2023-03-11T12:47:38.623Z,118.59
2023-03-11T12:48:38.555Z,124.44
2023-03-11T12:49:38.525Z,120.53
2023-03-11T12:50:38.497Z,125.45
2023-03-11T12:51:38.421Z,106.34
2023-03-11T12:52:38.443Z,113.01
2023-03-11T12:53:38.329Z,116.48
2023-03-11T12:54:38.306Z,116.60
2023-03-11T12:55:38.267Z,120.46
2023-03-11T12:56:38.195Z,120.49
2023-03-11T12:57:38.207Z,115.44
2023-03-11T12:58:38.138Z,106.43
2023-03-11T12:59:38.089Z,116.17
2023-03-11T13:00:38.061Z,111.54
2023-03-11T13:01:38.015Z,114.77
2023-03-11T13:02:38.021Z,114.61
2023-03-11T13:03:37.933Z,116.39
2023-03-11T13:04:37.834Z,116.82
2023-03-11T13:05:37.798Z,120.20
2023-03-11T13:06:37.776Z,122.61
2023-03-11T13:07:37.741Z,119.20
2023-03-11T13:08:37.659Z,117.21
2023-03-11T13:09:37.617Z,120.38
2023-03-11T13:10:37.542Z,119.07
2023-03-11T13:11:37.510Z,119.74
2023-03-11T13:12:37.477Z,119.47
2023-03-11T13:13:37.413Z,118.63
2023-03-11T13:14:37.360Z,115.50
2023-03-11T13:15:37.322Z,117.52
2023-03-11T13:16:37.374Z,116.58
2023-03-11T13:17:37.294Z,118.25
2023-03-11T13:18:37.179Z,115.07
2023-03-11T13:19:37.124Z,115.39
2023-03-11T13:20:37.098Z,117.63
2023-03-11T13:21:37.026Z,119.12
2023-03-11T13:22:36.991Z,121.65
2023-03-11T13:23:36.954Z,119.24
2023-03-11T13:24:36.906Z,115.76
2023-03-11T13:25:36.913Z,114.27
2023-03-11T13:26:36.803Z,112.23
2023-03-11T13:27:36.778Z,113.11
2023-03-11T13:28:36.706Z,109.45
2023-03-11T13:29:36.701Z,112.67
2023-03-11T13:30:36.621Z,113.72
2023-03-11T13:31:36.597Z,118.03
2023-03-11T13:32:36.555Z,118.65
2023-03-11T13:33:36.462Z,118.42
2023-03-11T13:34:36.436Z,106.80
2023-03-11T13:35:36.427Z,109.59
2023-03-11T13:36:36.336Z,107.90
2023-03-11T13:37:36.298Z,108.76
2023-03-11T13:38:36.236Z,113.18
2023-03-11T13:39:36.195Z,109.02
2023-03-11T13:40:36.155Z,112.64
2023-03-11T13:41:36.094Z,119.19
2023-03-11T13:42:36.074Z,117.35
2023-03-11T13:43:36.015Z,117.10
2023-03-11T13:44:35.936Z,118.16
2023-03-11T13:45:35.960Z,117.12
2023-03-11T13:46:35.857Z,117.16
2023-03-11T13:47:35.819Z,117.79
2023-03-11T13:48:37.517Z,121.96
2023-03-11T13:49:35.699Z,117.36
2023-03-11T13:50:35.673Z,123.81
2023-03-11T13:51:35.609Z,126.90
2023-03-11T13:52:35.613Z,124.90
2023-03-11T13:53:35.534Z,121.59
2023-03-11T13:54:35.475Z,125.02
2023-03-11T13:55:35.445Z,123.62
2023-03-11T13:56:35.384Z,124.91
2023-03-11T13:57:35.339Z,119.58
2023-03-11T13:58:35.307Z,108.69
2023-03-11T13:59:35.258Z,110.46
2023-03-11T14:00:35.207Z,111.97
2023-03-11T14:01:35.149Z,113.35
2023-03-11T14:02:35.105Z,114.25
2023-03-11T14:03:35.048Z,116.28
2023-03-11T14:04:35.034Z,117.87
2023-03-11T14:05:34.989Z,120.13
2023-03-11T14:06:34.901Z,124.24
2023-03-11T14:07:34.883Z,128.38
2023-03-11T14:08:34.818Z,122.73
2023-03-11T14:09:34.756Z,123.47
2023-03-11T14:10:34.718Z,123.96
2023-03-11T14:11:34.672Z,122.31
2023-03-11T14:12:34.619Z,123.93
2023-03-11T14:13:34.581Z,121.85
2023-03-11T14:14:34.518Z,116.84
2023-03-11T14:15:34.470Z,114.46
2023-03-11T14:16:34.443Z,118.28
2023-03-11T14:17:34.378Z,115.40
2023-03-11T14:18:34.333Z,108.86
2023-03-11T14:19:34.274Z,105.39
2023-03-11T14:20:34.253Z,107.08
2023-03-11T14:21:34.153Z,107.17
2023-03-11T14:22:34.121Z,107.89
2023-03-11T14:23:34.087Z,108.09
2023-03-11T14:24:34.015Z,110.37
2023-03-11T14:25:33.948Z,109.08
2023-03-11T14:26:33.903Z,105.88
2023-03-11T14:27:33.864Z,107.49
2023-03-11T14:28:33.810Z,107.98
2023-03-11T14:29:33.755Z,107.48
2023-03-11T14:30:33.748Z,108.18
2023-03-11T14:31:33.722Z,105.39
2023-03-11T14:32:33.640Z,104.41
2023-03-11T14:33:33.588Z,105.67
2023-03-11T14:34:33.560Z,105.68
2023-03-11T14:35:33.453Z,107.63
2023-03-11T14:36:33.391Z,110.35
2023-03-11T14:37:33.334Z,116.04
2023-03-11T14:38:33.345Z,112.45
2023-03-11T14:39:33.264Z,116.29
2023-03-11T14:40:33.182Z,113.68
2023-03-11T14:41:33.148Z,114.42
2023-03-11T14:42:33.088Z,113.16
2023-03-11T14:43:33.058Z,115.71
2023-03-11T14:44:32.983Z,112.77
2023-03-11T14:45:33.106Z,112.94
2023-03-11T14:46:32.921Z,115.94
2023-03-11T14:47:32.843Z,115.73
2023-03-11T14:48:32.781Z,117.82
2023-03-11T14:49:32.742Z,117.70
2023-03-11T14:50:32.688Z,118.52
2023-03-11T14:51:32.628Z,118.08
2023-03-11T14:52:32.581Z,124.47
2023-03-11T14:53:32.531Z,122.36
2023-03-11T14:54:32.517Z,125.87
2023-03-11T14:55:32.437Z,124.46
2023-03-11T15:29:30.761Z,146.12
2023-03-11T15:30:30.746Z,150.43
2023-03-11T15:31:30.642Z,149.87
2023-03-11T15:32:30.579Z,145.67
2023-03-11T15:33:30.513Z,150.58
2023-03-11T15:34:30.466Z,151.02
2023-03-11T15:35:30.429Z,156.89
2023-03-11T15:36:30.354Z,153.20
2023-03-11T15:37:30.287Z,148.33
2023-03-11T15:38:30.234Z,151.28
2023-03-11T15:39:30.241Z,156.06
2023-03-11T15:40:44.026Z,154.06
2023-03-11T15:41:31.073Z,154.10
2023-03-11T15:42:30.018Z,153.97
2023-03-11T15:43:29.986Z,154.51
2023-03-11T15:44:29.972Z,155.31
2023-03-11T15:45:29.873Z,153.15
2023-03-11T15:46:29.894Z,152.54
2023-03-11T15:47:29.783Z,150.22
2023-03-11T15:48:29.835Z,143.16
2023-03-11T15:49:29.689Z,150.06
2023-03-11T15:50:40.318Z,151.56
2023-03-11T15:51:30.570Z,151.64
2023-03-11T15:52:29.542Z,129.47
2023-03-11T15:53:29.470Z,139.89
2023-03-11T15:54:29.458Z,146.58
2023-03-11T15:55:29.372Z,143.38
2023-03-11T15:56:29.322Z,137.79
2023-03-11T15:57:29.273Z,129.91
2023-03-11T15:58:29.231Z,121.58
2023-03-11T15:59:29.178Z,127.29
2023-03-11T16:00:29.122Z,105.47
2023-03-11T16:01:29.082Z,119.15
2023-03-11T16:02:29.077Z,128.25
2023-03-11T16:03:31.290Z,127.04
2023-03-11T16:04:29.026Z,127.37
2023-03-11T16:05:28.901Z,128.25
2023-03-11T16:06:28.860Z,124.55
2023-03-11T16:07:39.278Z,115.08
2023-03-11T16:08:29.765Z,117.08
2023-03-11T16:09:28.717Z,117.37
2023-03-11T16:10:28.695Z,125.35
2023-03-11T16:11:28.625Z,112.86
2023-03-11T16:12:28.589Z,112.42
2023-03-11T16:13:28.526Z,116.78
2023-03-11T16:14:28.482Z,98.26
2023-03-11T16:15:28.739Z,107.91
2023-03-11T16:16:28.401Z,99.30
2023-03-11T16:17:39.575Z,111.28
2023-03-11T16:19:28.246Z,112.68
2023-03-11T16:20:28.212Z,116.34
2023-03-11T16:21:28.174Z,120.89
2023-03-11T16:22:28.118Z,131.57
2023-03-11T16:23:28.746Z,139.46
2023-03-11T16:24:28.017Z,138.30
2023-03-11T16:25:27.969Z,122.22
2023-03-11T16:26:27.935Z,112.32
2023-03-11T16:27:27.901Z,87.65
2023-03-11T16:28:27.850Z,87.78
2023-03-11T16:29:27.846Z,87.58
2023-03-11T16:30:27.806Z,97.38
2023-03-11T16:31:27.806Z,74.66
2023-03-11T16:32:27.755Z,93.51
2023-03-11T16:33:27.658Z,88.81
2023-03-11T16:34:27.686Z,91.72
2023-03-11T16:35:27.636Z,83.08
2023-03-11T18:17:23.559Z,154.73
2023-03-11T18:18:23.508Z,138.36
2023-03-11T18:19:23.467Z,149.71
2023-03-11T18:20:23.439Z,146.63
2023-03-11T18:21:23.405Z,156.14
2023-03-11T18:22:23.402Z,148.97
2023-03-11T18:23:23.353Z,138.04
2023-03-11T18:24:23.314Z,147.55
2023-03-11T18:25:23.291Z,145.11
2023-03-11T18:26:23.395Z,146.71
2023-03-11T18:27:23.220Z,148.31
2023-03-11T18:28:23.166Z,149.15
2023-03-11T18:29:24.370Z,150.89
2023-03-11T18:30:23.105Z,147.97
2023-03-11T18:31:23.125Z,134.70
2023-03-11T18:32:23.093Z,142.01
2023-03-11T18:33:23.001Z,139.53
2023-03-11T18:34:22.974Z,133.47
2023-03-11T18:35:22.933Z,134.91
2023-03-11T18:36:22.900Z,141.55
2023-03-11T18:37:22.910Z,144.05
2023-03-11T18:38:22.886Z,144.39
2023-03-11T18:39:22.801Z,150.35
2023-03-11T18:40:22.762Z,149.15
2023-03-11T18:41:22.717Z,140.88
2023-03-11T18:42:22.695Z,149.08
2023-03-11T18:43:22.647Z,140.41
2023-03-11T18:44:22.642Z,146.93
2023-03-11T18:45:22.585Z,145.62
2023-03-11T18:46:22.678Z,145.90
2023-03-11T18:47:22.520Z,139.40
2023-03-11T18:48:22.488Z,136.43
2023-03-11T18:49:22.454Z,147.44
2023-03-11T18:50:22.430Z,150.76
2023-03-11T18:51:22.456Z,137.72
2023-03-11T20:17:19.454Z,202.52
2023-03-11T20:18:19.377Z,203.41
2023-03-11T20:19:19.342Z,208.53
2023-03-11T20:20:19.259Z,212.48
2023-03-11T20:21:19.201Z,203.95
2023-03-11T20:22:19.292Z,208.59
2023-03-11T20:23:19.135Z,207.35
2023-03-11T20:24:19.110Z,205.33
2023-03-11T20:25:19.111Z,207.60
2023-03-11T20:26:19.037Z,211.86
2023-03-11T20:27:18.961Z,207.40
2023-03-11T20:28:18.927Z,210.83
2023-03-11T20:29:18.930Z,212.16
2023-03-11T20:30:18.893Z,205.85
2023-03-11T20:31:18.857Z,205.44
2023-03-11T20:32:18.863Z,205.59
2023-03-11T20:33:18.777Z,212.12
2023-03-11T20:34:18.801Z,210.21
2023-03-11T20:35:18.645Z,206.60
2023-03-11T20:36:18.754Z,206.59
2023-03-11T20:37:18.584Z,209.67
2023-03-11T20:38:18.586Z,208.47
2023-03-11T20:39:18.505Z,209.58
2023-03-11T20:40:18.491Z,208.87
2023-03-11T20:41:18.422Z,213.84
2023-03-11T20:42:18.387Z,214.02
2023-03-11T20:43:18.348Z,214.75
2023-03-11T20:44:18.313Z,216.16
2023-03-11T20:45:18.302Z,217.44
2023-03-11T20:46:18.368Z,219.18
2023-03-11T20:47:18.314Z,220.69
2023-03-11T20:48:18.177Z,219.79
2023-03-11T20:49:18.147Z,216.03
2023-03-11T20:50:18.134Z,213.20
2023-03-11T20:51:18.141Z,215.11
2023-03-11T20:52:18.116Z,218.00
2023-03-11T20:53:17.996Z,216.47
2023-03-11T20:54:17.963Z,218.89
2023-03-11T20:55:18.044Z,215.38
2023-03-11T20:56:17.970Z,219.46
2023-03-11T20:57:17.866Z,216.55
2023-03-11T20:58:17.835Z,214.55
2023-03-11T20:59:17.807Z,216.23
2023-03-11T21:00:17.751Z,216.32
2023-03-11T21:01:17.827Z,216.60
2023-03-11T21:02:17.688Z,217.86
2023-03-11T21:03:17.785Z,217.78
2023-03-11T21:04:17.626Z,220.35
2023-03-11T21:05:17.617Z,215.88
2023-03-11T21:06:17.556Z,216.77
2023-03-11T21:07:17.595Z,217.85
2023-03-11T21:08:17.520Z,219.69
2023-03-11T21:09:17.654Z,217.56
2023-03-11T21:10:17.457Z,221.16
2023-03-11T21:11:17.506Z,217.64
2023-03-11T21:12:17.421Z,218.65
2023-03-11T21:13:17.438Z,216.70
2023-03-11T21:14:17.286Z,219.42
2023-03-11T21:15:17.278Z,216.94
2023-03-11T21:16:17.297Z,218.45
2023-03-11T21:17:17.482Z,220.83
2023-03-11T21:18:17.207Z,220.38
2023-03-11T21:19:17.154Z,216.58
2023-03-11T21:20:17.079Z,216.77
2023-03-11T21:21:17.103Z,217.45
2023-03-11T21:22:17.091Z,217.85
2023-03-11T21:23:16.988Z,216.75
2023-03-11T21:24:17.042Z,214.15
2023-03-11T21:25:17.156Z,214.54
2023-03-11T21:26:17.015Z,211.93
2023-03-11T21:27:16.974Z,212.23
2023-03-11T21:28:16.811Z,216.31
2023-03-11T21:29:16.787Z,216.07